Clay Center, KS

8:18 PM CDT on August 28, 2015 (GMT -0500)
Clay County Medical Center | | Change Station
CLOSE
Current Station
Personal Weather Station
Location: Clay Center, KS
Elevation: 1274 ft
Nearby Weather Stations

Elev 1274 ft 39.39 °N, 97.12 °W | Updated 21 seconds ago

Partly Cloudy
Partly Cloudy
74.3 °F
Feels Like 75 °F
N
2.0
Wind Variable Wind from NW
Gusts 8.0 mph

Today
High -- | Low -- °F
--% Chance of Precip.
Yesterday
High -- | Low -- °F
Precip. -- in
6:53 AM 8:05 PM
Waxing Gibbous, 99% visible
Pressure 29.85 in
Visibility 10.0 miles
Clouds Few 3700 ft
Heat Index 75 °F
Dew Point 67 °F
Humidity 79%
Rainfall 0.23 in
Snow Depth Not available.
UV 0 out of 12
Pollen 4.80 out of 12
Air Quality Not available.
Flu Activity Not available.
METAR KMHK 290052Z 36006KT 10SM FEW037 24/21 A2988 RMK AO2 SLP108 T02440206
Pressure 29.85 in
Visibility 10.0 miles
Clouds Few 3700 ft
Heat Index 75 °F
Dew Point 67 °F
Humidity 79%
Rainfall 0.23 in
Snow Depth Not available.
UV 0 out of 12
Pollen 4.80 out of 12
Air Quality Not available.
Flu Activity Not available.
METAR KMHK 290052Z 36006KT 10SM FEW037 24/21 A2988 RMK AO2 SLP108 T02440206

10-Day Weather Forecast

×

Almanac

Astronomy

Aug. 28, 2015 Rise Set
Actual Time
Civil Twilight
Nautical Twilight
Astronomical Twilight
Moon
Length of Visible Light
Length of Day
Tomorrow will be .
, % of the Moon is Illuminated

Today's Extremes

State Highs State Lows

Community

WunderPhotos

Upload Photos

1,850,561 photos uploaded!

WunderBlogs® & News

Nearby

Air Quality

  Air Quality AQ Index Pollutant
Not available.

Snow Depth

Station Depth Elevation

Earthquake Activity

City Distance Mag. Time & Date
Minimum magnitude displayed is 2.5.

Coastal Water Temperatures

Place Temperature

Stations

Nearby Weather Stations

Station Location Temp. Windchill Dew Point Humidity Wind Precip. Elev Updated Type